createdAt,value
2019-04-28T00:00:01.391Z,10.19
2019-04-28T00:00:53.119Z,10.22
2019-04-28T00:01:45.291Z,10.26
2019-04-28T00:02:35.760Z,10.29
2019-04-28T00:03:26.302Z,10.32
2019-04-28T00:04:16.465Z,10.35
2019-04-28T00:05:06.727Z,10.37
2019-04-28T00:05:56.858Z,10.40
2019-04-28T00:06:47.040Z,10.41
2019-04-28T00:07:37.678Z,10.44
2019-04-28T00:08:27.942Z,10.47
2019-04-28T00:09:18.853Z,10.49
2019-04-28T00:10:10.990Z,10.51
2019-04-28T00:10:59.225Z,10.52
2019-04-28T00:11:51.611Z,10.53
2019-04-28T00:12:41.289Z,10.53
2019-04-28T00:13:32.119Z,10.56
2019-04-28T00:14:21.931Z,10.57
2019-04-28T00:15:12.354Z,10.58
2019-04-28T00:16:02.899Z,10.58
2019-04-28T00:16:53.440Z,10.59
2019-04-28T00:17:43.706Z,10.60
2019-04-28T00:18:34.324Z,10.63
2019-04-28T00:19:23.968Z,10.64
2019-04-28T00:20:17.324Z,10.63
2019-04-28T00:21:36.214Z,10.65
2019-04-28T00:22:31.872Z,10.66
2019-04-28T00:23:38.527Z,10.67
2019-04-28T00:25:03.460Z,10.65
2019-04-28T00:26:03.418Z,10.64
2019-04-28T00:26:55.999Z,10.62
2019-04-28T00:27:46.852Z,10.61
2019-04-28T00:28:37.187Z,10.60
2019-04-28T00:29:37.613Z,10.58
2019-04-28T00:30:17.677Z,10.57
2019-04-28T00:31:08.397Z,10.58
2019-04-28T00:32:01.082Z,10.56
2019-04-28T00:32:51.863Z,10.56
2019-04-28T00:33:41.016Z,10.57
2019-04-28T00:34:31.190Z,10.55
2019-04-28T00:35:23.193Z,10.54
2019-04-28T00:36:11.637Z,10.52
2019-04-28T00:37:27.104Z,10.52
2019-04-28T00:38:18.390Z,10.52
2019-04-28T00:39:08.210Z,10.50
2019-04-28T00:39:58.422Z,10.48
2019-04-28T00:40:48.666Z,10.46
2019-04-28T00:41:39.773Z,10.44
2019-04-28T00:42:31.496Z,10.43
2019-04-28T00:43:21.807Z,10.42
2019-04-28T00:44:12.187Z,10.41
2019-04-28T00:45:02.215Z,10.39
2019-04-28T00:45:52.186Z,10.38
2019-04-28T00:46:42.621Z,10.36
2019-04-28T00:47:33.427Z,10.35
2019-04-28T00:48:23.828Z,10.34
2019-04-28T00:49:13.462Z,10.33
2019-04-28T00:50:04.560Z,10.31
2019-04-28T00:50:54.863Z,10.29
2019-04-28T00:51:45.644Z,10.28
2019-04-28T00:52:35.532Z,10.27
2019-04-28T00:53:26.392Z,10.24
2019-04-28T00:54:16.087Z,10.21
2019-04-28T00:55:06.114Z,10.20
2019-04-28T00:55:56.523Z,10.16
2019-04-28T00:56:46.802Z,10.15
2019-04-28T00:57:36.979Z,10.13
2019-04-28T00:58:27.258Z,10.10
2019-04-28T00:59:17.439Z,10.08
2019-04-28T01:00:08.709Z,10.06
2019-04-28T01:01:01.414Z,10.02
2019-04-28T01:01:56.350Z,10.00
2019-04-28T01:02:46.710Z,9.97
2019-04-28T01:03:37.401Z,9.94
2019-04-28T01:04:27.192Z,9.92
2019-04-28T01:05:17.296Z,9.90
2019-04-28T01:06:07.467Z,9.87
2019-04-28T01:06:57.379Z,9.86
2019-04-28T01:07:48.112Z,9.83
2019-04-28T01:08:38.509Z,9.81
2019-04-28T01:09:28.401Z,9.78
2019-04-28T01:10:21.001Z,9.76
2019-04-28T01:11:11.362Z,9.72
2019-04-28T01:12:01.824Z,9.70
2019-04-28T01:12:51.002Z,9.67
2019-04-28T01:13:41.911Z,9.64
2019-04-28T01:14:31.364Z,9.62
2019-04-28T01:15:36.553Z,9.58
2019-04-28T01:16:32.022Z,9.56
2019-04-28T01:17:25.563Z,9.54
2019-04-28T01:18:44.343Z,9.51
2019-04-28T01:19:36.228Z,9.48
2019-04-28T01:20:26.052Z,9.45
2019-04-28T01:21:16.414Z,9.43
2019-04-28T01:22:14.477Z,9.41
2019-04-28T01:23:04.624Z,9.39
2019-04-28T01:23:54.717Z,9.38
2019-04-28T01:24:44.360Z,9.36
2019-04-28T01:25:34.271Z,9.33
2019-04-28T01:26:25.062Z,9.32
2019-04-28T01:27:37.688Z,9.32
2019-04-28T01:28:29.662Z,9.30
2019-04-28T01:29:19.516Z,9.28
2019-04-28T01:30:12.562Z,9.27
2019-04-28T01:31:21.761Z,9.25
2019-04-28T01:32:23.418Z,9.25
2019-04-28T01:33:47.907Z,9.23
2019-04-28T01:34:37.624Z,9.21
2019-04-28T01:35:29.181Z,9.18
2019-04-28T01:36:20.198Z,9.18
2019-04-28T01:37:09.737Z,9.16
2019-04-28T01:38:00.126Z,9.15
2019-04-28T01:38:50.167Z,9.14
2019-04-28T01:39:41.276Z,9.14
2019-04-28T01:40:31.480Z,9.13
2019-04-28T01:41:21.795Z,9.12
2019-04-28T01:42:12.799Z,9.13
2019-04-28T01:43:03.320Z,9.12
2019-04-28T01:43:53.219Z,9.12
2019-04-28T01:44:43.708Z,9.12
2019-04-28T01:45:33.786Z,9.12
2019-04-28T01:46:24.784Z,9.12
2019-04-28T01:47:14.901Z,9.12
2019-04-28T01:48:05.053Z,9.13
2019-04-28T01:48:56.230Z,9.12
2019-04-28T01:49:46.716Z,9.10
2019-04-28T01:50:40.006Z,9.10
2019-04-28T01:51:30.446Z,9.10
2019-04-28T01:52:20.294Z,9.10
2019-04-28T01:53:09.818Z,9.10
2019-04-28T01:54:00.215Z,9.10
2019-04-28T01:54:50.296Z,9.09
2019-04-28T01:55:41.174Z,9.09
2019-04-28T01:56:30.473Z,9.09
2019-04-28T01:57:21.492Z,9.08
2019-04-28T01:58:10.325Z,9.07
2019-04-28T01:59:00.485Z,9.08
2019-04-28T01:59:50.687Z,9.06
2019-04-28T02:00:40.651Z,9.06
2019-04-28T02:01:30.390Z,9.05
2019-04-28T02:02:20.570Z,9.04
2019-04-28T02:03:10.762Z,9.05
2019-04-28T02:04:01.246Z,9.05
2019-04-28T02:04:52.043Z,9.03
2019-04-28T02:05:42.592Z,9.04
2019-04-28T02:06:33.222Z,9.02
2019-04-28T02:07:24.637Z,9.02
2019-04-28T02:08:17.926Z,9.01
2019-04-28T02:09:10.245Z,9.01
2019-04-28T02:10:00.911Z,9.02
2019-04-28T02:10:51.985Z,9.03
2019-04-28T02:11:42.758Z,9.03
2019-04-28T02:12:32.745Z,9.03
2019-04-28T02:13:24.784Z,9.04
2019-04-28T02:14:14.563Z,9.04
2019-04-28T02:15:05.057Z,9.04
2019-04-28T02:15:55.199Z,9.05
2019-04-28T02:16:44.839Z,9.05
2019-04-28T02:17:34.793Z,9.07
2019-04-28T02:18:25.594Z,9.08
2019-04-28T02:19:16.378Z,9.09
2019-04-28T02:20:07.203Z,9.10
2019-04-28T02:21:03.428Z,9.10
2019-04-28T02:22:00.066Z,9.12
2019-04-28T02:22:54.105Z,9.11
2019-04-28T02:23:44.785Z,9.12
2019-04-28T02:24:54.592Z,9.12
2019-04-28T02:25:46.444Z,9.13
2019-04-28T02:26:37.059Z,9.11
2019-04-28T02:27:27.948Z,9.11
2019-04-28T02:28:19.792Z,9.13
2019-04-28T02:29:10.209Z,9.12
2019-04-28T02:30:00.120Z,9.13
2019-04-28T02:30:53.537Z,9.14
2019-04-28T02:31:41.946Z,9.13
2019-04-28T02:32:31.083Z,9.15
2019-04-28T02:33:21.319Z,9.16
2019-04-28T02:34:11.925Z,9.17
2019-04-28T02:35:03.025Z,9.18
2019-04-28T02:35:53.445Z,9.20
2019-04-28T02:36:45.474Z,9.21
2019-04-28T02:37:36.410Z,9.22
2019-04-28T02:38:26.535Z,9.24
2019-04-28T02:39:16.581Z,9.25
2019-04-28T02:40:10.362Z,9.27
2019-04-28T02:41:00.186Z,9.28
2019-04-28T02:41:51.203Z,9.28
2019-04-28T02:42:40.945Z,9.29
2019-04-28T02:43:30.994Z,9.30
2019-04-28T02:44:23.513Z,9.31
2019-04-28T02:45:12.027Z,9.31
2019-04-28T02:46:02.388Z,9.33
2019-04-28T02:46:53.837Z,9.33
2019-04-28T02:47:44.101Z,9.35
2019-04-28T02:48:34.055Z,9.36
2019-04-28T02:49:30.644Z,9.37
2019-04-28T02:50:40.956Z,9.39
2019-04-28T02:51:32.651Z,9.41
2019-04-28T02:52:42.369Z,9.40
2019-04-28T02:53:36.556Z,9.40
2019-04-28T02:54:26.894Z,9.41
2019-04-28T02:55:16.738Z,9.43
2019-04-28T02:56:07.665Z,9.42
2019-04-28T02:56:57.470Z,9.42
2019-04-28T02:57:47.755Z,9.42
2019-04-28T02:58:41.297Z,9.42
2019-04-28T02:59:30.451Z,9.42
2019-04-28T03:00:21.328Z,9.43
2019-04-28T03:01:18.533Z,9.43
2019-04-28T03:02:00.798Z,9.42
2019-04-28T03:02:51.511Z,9.42
2019-04-28T03:03:41.473Z,9.41
2019-04-28T03:04:32.172Z,9.42
2019-04-28T03:05:22.315Z,9.42
2019-04-28T03:06:13.014Z,9.42
2019-04-28T03:07:03.590Z,9.42
2019-04-28T03:07:54.508Z,9.41
2019-04-28T03:08:44.983Z,9.40
2019-04-28T03:09:35.373Z,9.39
2019-04-28T03:10:26.031Z,9.38
2019-04-28T03:11:16.873Z,9.38
2019-04-28T03:12:07.614Z,9.38
2019-04-28T03:12:57.631Z,9.37
2019-04-28T03:13:50.853Z,9.38
2019-04-28T03:14:43.436Z,9.37
2019-04-28T03:15:30.315Z,9.37
2019-04-28T03:16:20.537Z,9.37
2019-04-28T03:17:10.991Z,9.36
2019-04-28T03:18:01.914Z,9.37
2019-04-28T03:18:51.401Z,9.35
2019-04-28T03:19:41.802Z,9.35
2019-04-28T03:20:32.095Z,9.34
2019-04-28T03:21:22.483Z,9.34
2019-04-28T03:22:13.098Z,9.34
2019-04-28T03:23:03.715Z,9.33
2019-04-28T03:23:54.591Z,9.33
2019-04-28T03:24:46.361Z,9.32
2019-04-28T03:25:54.490Z,9.32
2019-04-28T03:26:53.853Z,9.30
2019-04-28T03:28:02.617Z,9.30
2019-04-28T03:29:24.729Z,9.28
2019-04-28T03:30:34.075Z,9.26
2019-04-28T03:32:18.236Z,9.23
2019-04-28T03:32:55.441Z,9.19
2019-04-28T03:33:48.530Z,9.15
2019-04-28T03:34:47.012Z,9.14
2019-04-28T03:35:36.923Z,9.11
2019-04-28T03:36:27.532Z,9.09
2019-04-28T03:37:17.939Z,9.06
2019-04-28T03:38:07.959Z,9.05
2019-04-28T03:39:00.725Z,9.02
2019-04-28T03:39:50.382Z,9.01
2019-04-28T03:40:41.402Z,8.99
2019-04-28T03:41:31.060Z,8.97
2019-04-28T03:42:21.548Z,8.96
2019-04-28T03:43:14.187Z,8.94
2019-04-28T03:44:02.139Z,8.92
2019-04-28T03:44:52.089Z,8.91
2019-04-28T03:45:50.253Z,8.89
2019-04-28T03:46:45.806Z,8.89
2019-04-28T03:47:36.753Z,8.85
2019-04-28T03:48:26.937Z,8.85
2019-04-28T03:49:33.852Z,8.84
2019-04-28T03:50:24.832Z,8.83
2019-04-28T03:51:14.853Z,8.83
2019-04-28T03:52:05.364Z,8.83
2019-04-28T03:52:56.096Z,8.83
2019-04-28T03:53:46.307Z,8.81
2019-04-28T03:54:40.681Z,8.82
2019-04-28T03:55:34.522Z,8.81
2019-04-28T03:56:20.913Z,8.82
2019-04-28T03:57:11.647Z,8.82
2019-04-28T03:58:02.234Z,8.81
2019-04-28T03:58:53.078Z,8.82
2019-04-28T03:59:43.919Z,8.82
2019-04-28T04:00:34.514Z,8.83
2019-04-28T04:01:24.574Z,8.83
2019-04-28T04:02:15.187Z,8.84
2019-04-28T04:03:05.868Z,8.84
2019-04-28T04:03:56.661Z,8.84
2019-04-28T04:04:47.001Z,8.84
2019-04-28T04:05:40.383Z,8.85
2019-04-28T04:06:27.899Z,8.85
2019-04-28T04:07:21.684Z,8.86
2019-04-28T04:08:11.219Z,8.85
2019-04-28T04:09:01.100Z,8.87
2019-04-28T04:10:11.641Z,8.88
2019-04-28T04:11:10.811Z,8.90
2019-04-28T04:12:21.234Z,8.91
2019-04-28T04:13:13.931Z,8.93
2019-04-28T04:14:14.314Z,8.93
2019-04-28T04:15:21.458Z,8.95
2019-04-28T04:16:30.945Z,8.96
2019-04-28T04:17:34.738Z,8.96
2019-04-28T04:18:32.940Z,8.96
2019-04-28T04:19:25.621Z,8.97
2019-04-28T04:20:20.720Z,8.97
2019-04-28T04:21:11.065Z,8.97
2019-04-28T04:22:03.537Z,8.98
2019-04-28T04:22:53.635Z,8.99
2019-04-28T04:23:44.914Z,8.99
2019-04-28T04:24:36.073Z,9.01
2019-04-28T04:25:31.134Z,9.02
2019-04-28T04:26:21.261Z,9.03
2019-04-28T04:27:10.715Z,9.05
2019-04-28T04:28:03.491Z,9.06
2019-04-28T04:28:51.500Z,9.06
2019-04-28T04:29:43.674Z,9.07
2019-04-28T04:30:33.689Z,9.10
2019-04-28T04:31:24.391Z,9.10
2019-04-28T04:32:23.190Z,9.11
2019-04-28T04:33:05.661Z,9.12
2019-04-28T04:33:56.095Z,9.14
2019-04-28T04:34:46.429Z,9.15
2019-04-28T04:35:37.172Z,9.16
2019-04-28T04:36:27.918Z,9.17
2019-04-28T04:37:20.771Z,9.18
2019-04-28T04:38:11.125Z,9.19
2019-04-28T04:39:02.291Z,9.21
2019-04-28T04:39:52.533Z,9.22
2019-04-28T04:40:43.784Z,9.23
2019-04-28T04:41:33.838Z,9.24
2019-04-28T04:42:24.740Z,9.27
2019-04-28T04:43:14.898Z,9.27
2019-04-28T04:44:11.163Z,9.29
2019-04-28T04:45:00.707Z,9.29
2019-04-28T04:45:52.807Z,9.31
2019-04-28T04:46:43.342Z,9.32
2019-04-28T04:47:34.315Z,9.34
2019-04-28T04:48:24.554Z,9.34
2019-04-28T04:49:14.828Z,9.37
2019-04-28T04:50:06.290Z,9.38
2019-04-28T04:50:57.066Z,9.40
2019-04-28T04:51:47.603Z,9.41
2019-04-28T04:52:40.299Z,9.41
2019-04-28T04:53:30.807Z,9.43
2019-04-28T04:54:20.479Z,9.42
2019-04-28T04:55:11.786Z,9.44
2019-04-28T04:56:02.242Z,9.43
2019-04-28T04:56:52.717Z,9.45
2019-04-28T04:57:43.011Z,9.46
2019-04-28T04:58:34.427Z,9.46
2019-04-28T04:59:26.696Z,9.46
2019-04-28T05:00:23.559Z,9.47
2019-04-28T05:01:40.707Z,9.49
2019-04-28T05:02:50.802Z,9.51
2019-04-28T05:03:33.127Z,9.50
2019-04-28T05:04:51.754Z,9.50
2019-04-28T05:05:42.518Z,9.51
2019-04-28T05:06:35.735Z,9.52
2019-04-28T05:07:26.327Z,9.51
2019-04-28T05:08:16.755Z,9.52
2019-04-28T05:09:10.080Z,9.52
2019-04-28T05:09:59.581Z,9.50
2019-04-28T05:10:50.321Z,9.51
2019-04-28T05:11:40.379Z,9.49
2019-04-28T05:12:31.474Z,9.50
2019-04-28T05:13:22.048Z,9.51
2019-04-28T05:14:12.591Z,9.49
2019-04-28T05:15:05.164Z,9.48
2019-04-28T05:15:56.222Z,9.48
2019-04-28T05:16:46.631Z,9.46
2019-04-28T05:17:37.545Z,9.45
2019-04-28T05:18:29.782Z,9.45
2019-04-28T05:19:20.919Z,9.44
2019-04-28T05:20:12.055Z,9.43
2019-04-28T05:21:02.839Z,9.42
2019-04-28T05:21:53.018Z,9.40
2019-04-28T05:23:03.251Z,9.40
2019-04-28T05:24:20.098Z,9.38
2019-04-28T05:25:17.676Z,9.39
2019-04-28T05:26:11.268Z,9.38
2019-04-28T05:26:59.645Z,9.37
2019-04-28T05:27:50.042Z,9.33
2019-04-28T05:28:50.592Z,9.33
2019-04-28T05:29:31.890Z,9.30
2019-04-28T05:30:22.268Z,9.29
2019-04-28T05:31:20.622Z,9.29
2019-04-28T05:32:05.632Z,9.27
2019-04-28T05:32:57.423Z,9.27
2019-04-28T05:33:46.568Z,9.27
2019-04-28T05:34:39.842Z,9.27
2019-04-28T05:35:29.414Z,9.27
2019-04-28T05:36:20.334Z,9.28
2019-04-28T05:37:10.754Z,9.28
2019-04-28T05:38:00.770Z,9.29
2019-04-28T05:38:51.276Z,9.29
2019-04-28T05:39:41.920Z,9.31
2019-04-28T05:40:33.330Z,9.32
2019-04-28T05:41:24.112Z,9.32
2019-04-28T05:42:14.412Z,9.33
2019-04-28T05:43:05.915Z,9.34
2019-04-28T05:43:59.614Z,9.34
2019-04-28T05:44:50.957Z,9.35
2019-04-28T05:45:41.513Z,9.37
2019-04-28T05:46:32.621Z,9.37
2019-04-28T05:47:22.616Z,9.37
2019-04-28T05:48:13.606Z,9.39
2019-04-28T05:49:15.789Z,9.40
2019-04-28T05:50:19.740Z,9.40
2019-04-28T05:51:11.201Z,9.41
2019-04-28T05:52:07.086Z,9.43
2019-04-28T05:53:02.592Z,9.45
2019-04-28T05:54:02.525Z,9.45
2019-04-28T05:54:57.274Z,9.47
2019-04-28T05:56:10.366Z,9.47
2019-04-28T05:57:23.284Z,9.48
2019-04-28T05:58:35.935Z,9.49
2019-04-28T05:59:45.617Z,9.50
2019-04-28T06:00:52.580Z,9.51
2019-04-28T06:01:57.242Z,9.53
2019-04-28T06:02:56.510Z,9.54
2019-04-28T06:03:40.637Z,9.53
2019-04-28T06:04:31.837Z,9.53
2019-04-28T06:05:23.381Z,9.53
2019-04-28T06:06:13.415Z,9.55
2019-04-28T06:07:10.060Z,9.56
2019-04-28T06:08:31.529Z,9.56
2019-04-28T06:09:34.895Z,9.58
2019-04-28T06:10:25.218Z,9.61
2019-04-28T06:11:35.340Z,9.63
2019-04-28T06:12:25.492Z,9.65
2019-04-28T06:13:16.170Z,9.65
2019-04-28T06:14:09.932Z,9.65
2019-04-28T06:15:00.137Z,9.68
2019-04-28T06:15:49.756Z,9.70
2019-04-28T06:16:40.603Z,9.72
2019-04-28T06:17:30.418Z,9.75
2019-04-28T06:18:20.996Z,9.78
2019-04-28T06:19:11.970Z,9.82
2019-04-28T06:20:03.719Z,9.85
2019-04-28T06:20:54.077Z,9.88
2019-04-28T06:21:44.890Z,9.91
2019-04-28T06:22:35.381Z,9.93
2019-04-28T06:23:28.687Z,9.97
2019-04-28T06:24:19.167Z,9.99
2019-04-28T06:25:10.663Z,10.01
2019-04-28T06:26:01.198Z,10.03
2019-04-28T06:26:51.652Z,10.05
2019-04-28T06:27:42.537Z,10.07
2019-04-28T06:28:32.743Z,10.09
2019-04-28T06:29:26.998Z,10.10
2019-04-28T06:30:18.357Z,10.12
2019-04-28T06:31:08.441Z,10.14
2019-04-28T06:31:58.563Z,10.14
2019-04-28T06:32:50.559Z,10.16
2019-04-28T06:33:44.410Z,10.15
2019-04-28T06:34:32.233Z,10.16
2019-04-28T06:35:25.987Z,10.17
2019-04-28T06:36:16.972Z,10.17
2019-04-28T06:37:08.449Z,10.18
2019-04-28T06:37:59.005Z,10.18
2019-04-28T06:38:50.634Z,10.20
2019-04-28T06:39:41.107Z,10.19
2019-04-28T06:40:31.679Z,10.21
2019-04-28T06:41:22.641Z,10.22
2019-04-28T06:42:12.947Z,10.23
2019-04-28T06:43:04.097Z,10.26
2019-04-28T06:43:55.060Z,10.27
2019-04-28T06:44:46.137Z,10.29
2019-04-28T06:45:38.591Z,10.31
2019-04-28T06:46:29.011Z,10.33
2019-04-28T06:47:19.601Z,10.33
2019-04-28T06:48:10.208Z,10.35
2019-04-28T06:49:00.903Z,10.34
2019-04-28T06:49:51.317Z,10.36
2019-04-28T06:50:41.815Z,10.36
2019-04-28T06:51:32.690Z,10.36
2019-04-28T06:52:23.820Z,10.35
2019-04-28T06:53:15.742Z,10.35
2019-04-28T06:54:06.533Z,10.33
2019-04-28T06:54:56.997Z,10.30
2019-04-28T06:55:47.909Z,10.28
2019-04-28T06:56:38.762Z,10.26
2019-04-28T06:57:29.461Z,10.25
2019-04-28T06:58:20.424Z,10.23
2019-04-28T06:59:11.477Z,10.22
2019-04-28T07:00:01.816Z,10.22
2019-04-28T07:00:52.511Z,10.22
2019-04-28T07:01:43.645Z,10.22
2019-04-28T07:02:33.689Z,10.21
2019-04-28T07:03:24.590Z,10.21
2019-04-28T07:04:15.799Z,10.22
2019-04-28T07:05:05.948Z,10.21
2019-04-28T07:05:56.026Z,10.22
2019-04-28T07:06:47.425Z,10.21
2019-04-28T07:07:38.051Z,10.22
2019-04-28T07:08:28.607Z,10.21
2019-04-28T07:09:18.980Z,10.20
2019-04-28T07:10:10.064Z,10.20
2019-04-28T07:11:00.085Z,10.22
2019-04-28T07:11:50.711Z,10.22
2019-04-28T07:12:41.090Z,10.22
2019-04-28T07:13:33.488Z,10.23
2019-04-28T07:14:24.251Z,10.24
2019-04-28T07:15:16.043Z,10.26
2019-04-28T07:16:06.488Z,10.26
2019-04-28T07:16:57.689Z,10.25
2019-04-28T07:17:47.950Z,10.26
2019-04-28T07:18:38.750Z,10.27
2019-04-28T07:19:29.006Z,10.26
2019-04-28T07:20:41.572Z,10.28
2019-04-28T07:21:38.512Z,10.28
2019-04-28T07:22:30.425Z,10.29
2019-04-28T07:23:22.752Z,10.29
2019-04-28T07:24:13.456Z,10.30
2019-04-28T07:25:03.924Z,10.29
2019-04-28T07:25:54.064Z,10.30
2019-04-28T07:26:44.926Z,10.29
2019-04-28T07:27:35.816Z,10.33
2019-04-28T07:28:26.851Z,10.35
2019-04-28T07:29:17.219Z,10.38
2019-04-28T07:30:07.351Z,10.43
2019-04-28T07:30:59.433Z,10.47
2019-04-28T07:31:50.145Z,10.50
2019-04-28T07:32:40.522Z,10.53
2019-04-28T07:33:36.231Z,10.57
2019-04-28T07:34:21.768Z,10.60
2019-04-28T07:35:12.566Z,10.62
2019-04-28T07:36:03.129Z,10.65
2019-04-28T07:36:53.693Z,10.66
2019-04-28T07:37:44.377Z,10.68
2019-04-28T07:38:34.325Z,10.68
2019-04-28T07:39:24.607Z,10.68
2019-04-28T07:40:15.242Z,10.66
2019-04-28T07:41:05.477Z,10.66
2019-04-28T07:41:55.649Z,10.65
2019-04-28T07:42:47.213Z,10.64
2019-04-28T07:43:37.852Z,10.63
2019-04-28T07:44:29.342Z,10.62
2019-04-28T07:45:20.506Z,10.60
2019-04-28T07:46:11.467Z,10.60
2019-04-28T07:47:02.178Z,10.59
2019-04-28T07:47:54.211Z,10.59
2019-04-28T07:48:45.499Z,10.57
2019-04-28T07:49:35.641Z,10.57
2019-04-28T07:50:26.444Z,10.57
2019-04-28T07:51:17.576Z,10.59
2019-04-28T07:52:19.210Z,10.60
2019-04-28T07:53:13.626Z,10.62
2019-04-28T07:54:08.487Z,10.65
2019-04-28T07:54:59.104Z,10.68
2019-04-28T07:55:49.660Z,10.71
2019-04-28T07:56:40.290Z,10.73
2019-04-28T07:57:31.438Z,10.77
2019-04-28T07:58:21.978Z,10.81
2019-04-28T07:59:12.410Z,10.85
2019-04-28T08:00:03.823Z,10.88
2019-04-28T08:00:55.301Z,10.88
2019-04-28T08:01:46.658Z,10.92
2019-04-28T08:02:36.762Z,10.93
2019-04-28T08:03:27.105Z,10.94
2019-04-28T08:04:18.068Z,10.93
2019-04-28T08:05:08.307Z,10.95
2019-04-28T08:05:58.886Z,10.94
2019-04-28T08:06:49.180Z,10.95
2019-04-28T08:07:40.152Z,10.96
2019-04-28T08:08:31.122Z,10.98
2019-04-28T08:09:23.123Z,10.99
2019-04-28T08:10:13.635Z,11.01
2019-04-28T08:11:07.568Z,11.02
2019-04-28T08:11:57.741Z,11.02
2019-04-28T08:12:49.240Z,11.03
2019-04-28T08:13:39.062Z,11.04
2019-04-28T08:14:30.027Z,11.05
2019-04-28T08:15:20.774Z,11.07
2019-04-28T08:16:12.504Z,11.09
2019-04-28T08:17:03.503Z,11.09
2019-04-28T08:17:53.945Z,11.12
2019-04-28T08:18:45.104Z,11.15
2019-04-28T08:19:35.378Z,11.19
2019-04-28T08:20:26.433Z,11.23
2019-04-28T08:21:17.185Z,11.27
2019-04-28T08:22:08.059Z,11.32
2019-04-28T08:22:58.842Z,11.36
2019-04-28T08:23:49.221Z,11.41
2019-04-28T08:24:39.711Z,11.45
2019-04-28T08:25:30.334Z,11.50
2019-04-28T08:26:21.949Z,11.54
2019-04-28T08:27:12.858Z,11.60
2019-04-28T08:28:03.222Z,11.63
2019-04-28T08:28:53.663Z,11.68
2019-04-28T08:29:44.758Z,11.73
2019-04-28T08:30:36.369Z,11.76
2019-04-28T08:31:32.999Z,11.80
2019-04-28T08:32:36.726Z,11.82
2019-04-28T08:33:36.880Z,11.82
2019-04-28T08:34:28.216Z,11.85
2019-04-28T08:35:18.609Z,11.84
2019-04-28T08:36:09.168Z,11.84
2019-04-28T08:36:59.469Z,11.84
2019-04-28T08:37:50.275Z,11.83
2019-04-28T08:38:41.490Z,11.83
2019-04-28T08:39:32.294Z,11.82
2019-04-28T08:40:23.565Z,11.81
2019-04-28T08:41:15.532Z,11.81
2019-04-28T08:42:06.008Z,11.82
2019-04-28T08:42:56.626Z,11.80
2019-04-28T08:43:47.116Z,11.82
2019-04-28T08:44:37.669Z,11.83
2019-04-28T08:45:29.713Z,11.86
2019-04-28T08:46:20.404Z,11.87
2019-04-28T08:47:10.859Z,11.89
2019-04-28T08:48:01.780Z,11.91
2019-04-28T08:48:52.406Z,11.92
2019-04-28T08:49:43.878Z,11.93
2019-04-28T08:50:35.005Z,11.94
2019-04-28T08:51:26.229Z,11.94
2019-04-28T08:52:18.327Z,11.95
2019-04-28T08:53:09.256Z,11.96
2019-04-28T08:53:59.989Z,11.97
2019-04-28T08:54:51.507Z,12.01
2019-04-28T08:55:42.331Z,12.04
2019-04-28T08:56:33.025Z,12.09
2019-04-28T08:57:23.682Z,12.13
2019-04-28T08:58:13.632Z,12.17
2019-04-28T08:59:05.039Z,12.21
2019-04-28T08:59:55.512Z,12.25
2019-04-28T09:00:45.606Z,12.29
2019-04-28T09:01:36.742Z,12.33
2019-04-28T09:02:27.651Z,12.36
2019-04-28T09:03:17.984Z,12.40
2019-04-28T09:04:15.157Z,12.44
2019-04-28T09:04:58.082Z,12.49
2019-04-28T09:05:49.310Z,12.51
2019-04-28T09:06:41.540Z,12.54
2019-04-28T09:07:32.078Z,12.56
2019-04-28T09:08:22.510Z,12.57
2019-04-28T09:09:16.998Z,12.58
2019-04-28T09:10:07.208Z,12.59
2019-04-28T09:10:58.425Z,12.59
2019-04-28T09:11:49.017Z,12.60
2019-04-28T09:12:40.695Z,12.60
2019-04-28T09:13:32.130Z,12.62
2019-04-28T09:14:23.265Z,12.61
2019-04-28T09:15:14.475Z,12.62
2019-04-28T09:16:05.547Z,12.63
2019-04-28T09:16:56.550Z,12.64
2019-04-28T09:17:47.082Z,12.65
2019-04-28T09:18:38.769Z,12.66
2019-04-28T09:19:29.418Z,12.66
2019-04-28T09:20:20.282Z,12.67
2019-04-28T09:21:10.747Z,12.67
2019-04-28T09:22:01.378Z,12.67
2019-04-28T09:22:52.439Z,12.66
2019-04-28T09:23:44.576Z,12.65
2019-04-28T09:24:34.662Z,12.64
2019-04-28T09:25:25.378Z,12.65
2019-04-28T09:26:16.272Z,12.65
2019-04-28T09:27:06.826Z,12.66
2019-04-28T09:27:58.124Z,12.67
2019-04-28T09:28:49.465Z,12.70
2019-04-28T09:29:40.325Z,12.72
2019-04-28T09:30:31.463Z,12.75
2019-04-28T09:31:22.367Z,12.77
2019-04-28T09:32:12.674Z,12.81
2019-04-28T09:33:03.801Z,12.82
2019-04-28T09:33:55.281Z,12.84
2019-04-28T09:34:45.267Z,12.85
2019-04-28T09:35:35.443Z,12.85
2019-04-28T09:36:26.419Z,12.88
2019-04-28T09:37:18.302Z,12.89
2019-04-28T09:38:08.524Z,12.92
2019-04-28T09:38:59.294Z,12.92
2019-04-28T09:39:53.095Z,12.92
2019-04-28T09:40:44.039Z,12.93
2019-04-28T09:41:34.404Z,12.91
2019-04-28T09:42:49.320Z,12.90
2019-04-28T09:44:05.087Z,12.89
2019-04-28T09:44:55.675Z,12.88
2019-04-28T09:45:52.650Z,12.89
2019-04-28T09:46:43.407Z,12.91
2019-04-28T09:47:33.536Z,12.94
2019-04-28T09:48:24.330Z,12.97
2019-04-28T09:49:15.050Z,13.01
2019-04-28T09:50:07.028Z,13.06
2019-04-28T09:50:57.142Z,13.12
2019-04-28T09:51:48.612Z,13.16
2019-04-28T09:52:39.133Z,13.20
2019-04-28T09:53:30.045Z,13.23
2019-04-28T09:54:20.841Z,13.25
2019-04-28T09:55:11.509Z,13.27
2019-04-28T09:56:02.211Z,13.26
2019-04-28T09:56:56.806Z,13.27
2019-04-28T09:57:42.818Z,13.27
2019-04-28T09:58:32.967Z,13.29
2019-04-28T09:59:23.783Z,13.29
2019-04-28T10:00:14.431Z,13.30
2019-04-28T10:01:06.655Z,13.33
2019-04-28T10:01:57.460Z,13.34
2019-04-28T10:02:48.082Z,13.38
2019-04-28T10:03:38.630Z,13.41
2019-04-28T10:04:41.041Z,13.46
2019-04-28T10:05:20.016Z,13.53
2019-04-28T10:06:11.219Z,13.60
2019-04-28T10:07:01.925Z,13.67
2019-04-28T10:07:52.904Z,13.75
2019-04-28T10:08:43.076Z,13.82
2019-04-28T10:09:34.472Z,13.91
2019-04-28T10:10:24.684Z,13.97
2019-04-28T10:11:15.605Z,14.04
2019-04-28T10:12:06.626Z,14.09
2019-04-28T10:12:58.947Z,14.14
2019-04-28T10:13:49.447Z,14.16
2019-04-28T10:14:40.149Z,14.18
2019-04-28T10:15:31.182Z,14.21
2019-04-28T10:16:22.108Z,14.24
2019-04-28T10:17:13.190Z,14.27
2019-04-28T10:18:04.106Z,14.32
2019-04-28T10:18:54.183Z,14.37
2019-04-28T10:19:44.868Z,14.41
2019-04-28T10:20:36.570Z,14.48
2019-04-28T10:21:27.022Z,14.52
2019-04-28T10:22:17.918Z,14.58
2019-04-28T10:23:08.453Z,14.62
2019-04-28T10:24:00.809Z,14.69
2019-04-28T10:24:51.125Z,14.75
2019-04-28T10:25:42.549Z,14.78
2019-04-28T10:26:33.378Z,14.80
2019-04-28T10:27:23.930Z,14.83
2019-04-28T10:28:14.246Z,14.84
2019-04-28T10:29:05.501Z,14.87
2019-04-28T10:29:57.890Z,14.88
2019-04-28T10:30:48.912Z,14.89
2019-04-28T10:31:39.366Z,14.89
2019-04-28T10:32:29.820Z,14.88
2019-04-28T10:33:20.268Z,14.86
2019-04-28T10:34:11.421Z,14.86
2019-04-28T10:35:02.681Z,14.83
2019-04-28T10:35:53.691Z,14.80
2019-04-28T10:36:43.927Z,14.77
2019-04-28T10:37:34.679Z,14.75
2019-04-28T10:38:25.822Z,14.71
2019-04-28T10:39:31.625Z,14.67
2019-04-28T10:40:33.195Z,14.64
2019-04-28T10:41:33.533Z,14.62
2019-04-28T10:42:24.304Z,14.60
2019-04-28T10:43:15.724Z,14.58
2019-04-28T10:44:08.608Z,14.58
2019-04-28T10:44:57.016Z,14.57
2019-04-28T10:45:48.499Z,14.56
2019-04-28T10:46:39.613Z,14.56
2019-04-28T10:47:30.546Z,14.58
2019-04-28T10:48:21.178Z,14.62
2019-04-28T10:49:12.634Z,14.66
2019-04-28T10:50:04.541Z,14.72
2019-04-28T10:50:55.562Z,14.76
2019-04-28T10:51:58.785Z,14.80
2019-04-28T10:52:37.576Z,14.84
2019-04-28T10:53:28.098Z,14.87
2019-04-28T10:54:20.111Z,14.91
2019-04-28T10:55:10.388Z,14.94
2019-04-28T10:56:00.700Z,14.97
2019-04-28T10:56:51.175Z,15.00
2019-04-28T10:57:41.518Z,15.03
2019-04-28T10:58:32.735Z,15.08
2019-04-28T10:59:23.263Z,15.12
2019-04-28T11:00:14.341Z,15.16
2019-04-28T11:01:04.904Z,15.20
2019-04-28T11:01:55.803Z,15.26
2019-04-28T11:02:46.878Z,15.30
2019-04-28T11:03:38.219Z,15.34
2019-04-28T11:04:46.888Z,15.40
2019-04-28T11:05:42.246Z,15.44
2019-04-28T11:06:33.468Z,15.48
2019-04-28T11:07:25.244Z,15.50
2019-04-28T11:08:33.409Z,15.51
2019-04-28T11:09:30.834Z,15.51
2019-04-28T11:10:20.334Z,15.53
2019-04-28T11:11:21.868Z,15.54
2019-04-28T11:12:15.903Z,15.54
2019-04-28T11:13:06.621Z,15.56
2019-04-28T11:13:56.763Z,15.58
2019-04-28T11:14:48.120Z,15.60
2019-04-28T11:15:38.525Z,15.65
2019-04-28T11:16:34.042Z,15.73
2019-04-28T11:17:24.616Z,15.83
2019-04-28T11:18:15.783Z,16.00
2019-04-28T11:19:06.577Z,16.21
2019-04-28T11:19:57.447Z,16.44
2019-04-28T11:20:47.548Z,16.74
2019-04-28T11:21:37.773Z,17.07
2019-04-28T11:22:28.187Z,17.43
2019-04-28T11:23:18.754Z,17.75
2019-04-28T11:24:09.525Z,18.10